Time;durP1;ratioP1;P1;durP2;ratioP2;P2;SDS_P1;SDS_P2;PMS_P1;PMS_P2;Temp;Humidity;BMP_temperature;BMP_pressure;BME280_temperature;BME280_humidity;BME280_pressure;Samples;Min_cycle;Max_cycle;Signal;HPM_P1;HPM_P2
2022/01/29 00:00:54;;;;;;;3.88;1.13;;;1.80;99.90;;;;;;5014031;28;20033;-75
2022/01/29 00:03:22;;;;;;;2.83;2.30;;;1.70;99.90;;;;;;5030551;28;20399;-75
2022/01/29 00:05:48;;;;;;;1.52;0.93;;;1.60;99.90;;;;;;5030145;28;20026;-75
2022/01/29 00:08:14;;;;;;;2.65;2.22;;;1.60;99.90;;;;;;5031774;28;20025;-75
2022/01/29 00:10:42;;;;;;;3.42;2.55;;;1.60;99.90;;;;;;5031635;28;20109;-75
2022/01/29 00:13:08;;;;;;;2.15;1.42;;;1.60;99.90;;;;;;5031504;28;20021;-75
2022/01/29 00:15:34;;;;;;;0.38;0.38;;;1.70;99.90;;;;;;5030253;28;20018;-75
2022/01/29 00:18:00;;;;;;;1.08;0.82;;;1.70;99.90;;;;;;5013923;28;20105;-75
2022/01/29 00:20:25;;;;;;;3.50;1.48;;;1.80;99.90;;;;;;5031571;28;20503;-76
2022/01/29 00:22:51;;;;;;;0.30;0.30;;;1.70;99.90;;;;;;5030320;28;20395;-75
2022/01/29 00:25:17;;;;;;;0.80;0.80;;;1.60;99.90;;;;;;5031485;28;20564;-75
2022/01/29 00:27:43;;;;;;;6.10;2.28;;;1.80;99.90;;;;;;5029985;28;20060;-75
2022/01/29 00:30:13;;;;;;;0.60;0.60;;;1.70;99.90;;;;;;5016363;23;20515;-72
2022/01/29 00:32:39;;;;;;;0.43;0.43;;;1.70;99.90;;;;;;5031309;28;20021;-73
2022/01/29 00:35:05;;;;;;;3.40;2.50;;;1.70;99.90;;;;;;5031420;28;20079;-73
2022/01/29 00:37:31;;;;;;;9.30;2.22;;;1.70;99.90;;;;;;5031262;28;20033;-74
2022/01/29 00:39:57;;;;;;;5.25;2.47;;;1.70;99.90;;;;;;5031394;28;20053;-73
2022/01/29 00:42:23;;;;;;;5.07;2.08;;;1.60;99.90;;;;;;5031196;28;20057;-74
2022/01/29 00:44:50;;;;;;;6.07;3.10;;;1.60;99.90;;;;;;5030907;28;20485;-73
2022/01/29 00:47:16;;;;;;;0.95;0.85;;;1.60;99.90;;;;;;5013417;28;20076;-73
2022/01/29 00:49:43;;;;;;;3.80;1.17;;;1.60;99.90;;;;;;5031130;28;20432;-73
2022/01/29 00:52:08;;;;;;;1.20;1.10;;;1.60;99.90;;;;;;5031179;28;20026;-73
2022/01/29 00:54:35;;;;;;;19.65;2.63;;;1.50;99.90;;;;;;5031072;28;20121;-73
2022/01/29 00:57:01;;;;;;;2.25;1.75;;;1.50;99.90;;;;;;5031082;28;20075;-73
2022/01/29 00:59:27;;;;;;;2.85;2.00;;;1.60;99.90;;;;;;5031270;28;20032;-73
2022/01/29 01:01:53;;;;;;;5.93;2.80;;;1.60;99.90;;;;;;5034908;28;20377;-73
2022/01/29 01:04:18;;;;;;;7.22;3.22;;;1.50;99.90;;;;;;5034733;28;20029;-73
2022/01/29 01:06:44;;;;;;;2.45;2.22;;;1.50;99.90;;;;;;5034539;28;20029;-73
2022/01/29 01:09:10;;;;;;;2.30;0.85;;;1.50;99.90;;;;;;5034514;28;20396;-73
2022/01/29 01:11:36;;;;;;;2.20;2.00;;;1.50;99.90;;;;;;5016627;28;20036;-73
2022/01/29 01:14:02;;;;;;;0.40;0.40;;;1.50;99.90;;;;;;5034543;28;20022;-73
2022/01/29 01:16:28;;;;;;;0.47;0.47;;;1.60;99.90;;;;;;5034220;28;20473;-73
2022/01/29 01:18:53;;;;;;;0.90;0.90;;;1.70;99.90;;;;;;5034455;28;20063;-73
2022/01/29 01:21:19;;;;;;;0.50;0.50;;;1.70;99.90;;;;;;5034387;28;20492;-73
2022/01/29 01:23:45;;;;;;;4.18;1.58;;;1.60;99.90;;;;;;5034310;28;20113;-73
2022/01/29 01:26:10;;;;;;;0.40;0.40;;;1.50;99.90;;;;;;5034158;28;20404;-73
2022/01/29 01:28:36;;;;;;;0.32;0.32;;;1.50;99.90;;;;;;5034158;28;20032;-73
2022/01/29 01:31:02;;;;;;;0.30;0.30;;;1.60;99.90;;;;;;5034182;28;20025;-73
2022/01/29 01:33:28;;;;;;;0.30;0.30;;;1.90;99.90;;;;;;5034110;28;20108;-73
2022/01/29 01:35:58;;;;;;;0.60;0.60;;;2.10;99.90;;;;;;5033936;28;20087;-73
2022/01/29 01:38:37;;;;;;;0.60;0.60;;;2.40;99.90;;;;;;5034120;28;20025;-73
2022/01/29 01:41:07;;;;;;;0.40;0.40;;;2.50;99.90;;;;;;5016182;28;20419;-73
2022/01/29 01:43:33;;;;;;;0.35;0.35;;;2.20;99.90;;;;;;5033851;28;20036;-73
2022/01/29 01:45:59;;;;;;;0.30;0.30;;;2.10;99.90;;;;;;5033791;28;20440;-74
2022/01/29 01:48:24;;;;;;;2.17;1.00;;;2.00;99.90;;;;;;5016203;28;20079;-73
2022/01/29 01:50:50;;;;;;;0.30;0.30;;;2.00;99.90;;;;;;5033791;28;20037;-73
2022/01/29 01:53:16;;;;;;;0.82;0.70;;;2.10;99.90;;;;;;5033704;28;20029;-73
2022/01/29 01:55:42;;;;;;;0.43;0.43;;;2.10;99.90;;;;;;5033333;28;20040;-73
2022/01/29 01:58:08;;;;;;;2.88;1.10;;;2.20;99.90;;;;;;5033747;28;20025;-73
2022/01/29 02:00:34;;;;;;;0.25;0.25;;;2.20;99.90;;;;;;5033657;28;20018;-73
2022/01/29 02:03:00;;;;;;;0.30;0.30;;;2.20;99.90;;;;;;5015633;28;20044;-73
2022/01/29 02:05:26;;;;;;;0.30;0.30;;;2.30;99.90;;;;;;5015691;28;20029;-73
2022/01/29 02:07:52;;;;;;;0.45;0.45;;;2.30;99.90;;;;;;5033459;28;20026;-73
2022/01/29 02:10:19;;;;;;;0.30;0.30;;;2.30;99.90;;;;;;5033268;28;20029;-73
2022/01/29 02:12:54;;;;;;;0.30;0.30;;;2.30;99.90;;;;;;5032276;28;20156;-73
2022/01/29 02:15:21;;;;;;;0.30;0.30;;;2.40;99.90;;;;;;5015569;28;20163;-73
2022/01/29 02:17:48;;;;;;;0.30;0.30;;;2.40;99.90;;;;;;5033169;28;20461;-73
2022/01/29 02:20:16;;;;;;;0.30;0.30;;;2.50;99.90;;;;;;5015519;28;20029;-73
2022/01/29 02:22:43;;;;;;;0.30;0.30;;;2.60;99.90;;;;;;5033081;28;20488;-73
2022/01/29 02:25:37;;;;;;;0.30;0.30;;;2.60;99.90;;;;;;5015305;28;20083;-73
2022/01/29 02:28:09;;;;;;;0.60;0.60;;;2.60;99.90;;;;;;5033154;28;20036;-73
2022/01/29 02:30:37;;;;;;;0.40;0.40;;;2.50;99.90;;;;;;5033045;28;20401;-73
2022/01/29 02:33:06;;;;;;;0.30;0.30;;;2.50;99.90;;;;;;5032775;28;20034;-73
2022/01/29 02:35:32;;;;;;;0.40;0.40;;;2.60;99.90;;;;;;5033192;28;20080;-73
2022/01/29 02:37:58;;;;;;;0.60;0.60;;;2.70;99.90;;;;;;5033141;28;20022;-73
2022/01/29 02:40:25;;;;;;;0.30;0.30;;;2.60;99.90;;;;;;5032905;28;20025;-73
2022/01/29 02:42:53;;;;;;;0.28;0.28;;;2.70;99.90;;;;;;5032794;28;20404;-73
2022/01/29 02:45:20;;;;;;;0.30;0.30;;;2.90;99.90;;;;;;5032913;28;20168;-73
2022/01/29 02:47:46;;;;;;;0.55;0.55;;;2.90;99.90;;;;;;5032832;28;20052;-73
2022/01/29 02:50:12;;;;;;;0.30;0.30;;;2.90;99.90;;;;;;5014997;28;20067;-73
2022/01/29 02:52:37;;;;;;;0.30;0.30;;;2.80;99.90;;;;;;5014918;28;20049;-73
2022/01/29 02:55:05;;;;;;;0.40;0.40;;;2.80;99.90;;;;;;5032313;28;20136;-73
2022/01/29 02:57:31;;;;;;;1.98;1.02;;;2.60;99.90;;;;;;5014722;28;20022;-73
2022/01/29 03:00:00;;;;;;;1.60;0.73;;;2.60;99.90;;;;;;5032496;28;20500;-73
2022/01/29 03:02:28;;;;;;;0.30;0.30;;;2.60;99.90;;;;;;5032415;28;20025;-73
2022/01/29 03:04:55;;;;;;;0.30;0.30;;;2.50;99.90;;;;;;5032419;28;20032;-73
2022/01/29 03:07:21;;;;;;;0.55;0.55;;;2.50;99.90;;;;;;5032339;28;20025;-73
2022/01/29 03:09:46;;;;;;;0.30;0.30;;;2.50;99.90;;;;;;5032327;28;20030;-73
2022/01/29 03:12:12;;;;;;;0.28;0.28;;;2.60;99.90;;;;;;5032573;28;20021;-73
2022/01/29 03:14:38;;;;;;;0.40;0.40;;;2.50;99.90;;;;;;5032352;28;20025;-73
2022/01/29 03:17:04;;;;;;;0.40;0.40;;;2.70;99.90;;;;;;5032131;28;20022;-73
2022/01/29 03:19:29;;;;;;;0.35;0.35;;;2.70;99.90;;;;;;5032246;28;20028;-73
2022/01/29 03:21:55;;;;;;;0.30;0.30;;;2.70;99.90;;;;;;5032079;28;20033;-73
2022/01/29 03:24:21;;;;;;;0.30;0.30;;;2.60;99.90;;;;;;5014242;28;20117;-73
2022/01/29 03:26:46;;;;;;;0.30;0.30;;;2.60;99.90;;;;;;5014076;28;20449;-73
2022/01/29 03:29:12;;;;;;;0.30;0.30;;;2.50;99.90;;;;;;5031835;28;20068;-73
2022/01/29 03:31:38;;;;;;;0.68;0.68;;;2.50;99.90;;;;;;5031902;28;20017;-73
2022/01/29 03:34:03;;;;;;;0.50;0.50;;;2.50;99.90;;;;;;5014418;28;20081;-73
2022/01/29 03:36:29;;;;;;;51.65;10.45;;;2.50;99.90;;;;;;5031770;28;20052;-73
2022/01/29 03:38:55;;;;;;;0.30;0.30;;;2.50;99.90;;;;;;5031936;28;20091;-73
2022/01/29 03:41:21;;;;;;;0.77;0.77;;;2.50;99.90;;;;;;5031905;28;20590;-73
2022/01/29 03:43:50;;;;;;;0.57;0.57;;;2.40;99.90;;;;;;5031943;28;20536;-73
2022/01/29 03:46:16;;;;;;;0.88;0.73;;;2.50;99.90;;;;;;5031717;28;20025;-73
2022/01/29 03:48:42;;;;;;;0.52;0.52;;;2.40;99.90;;;;;;5014209;28;20381;-73
2022/01/29 03:51:07;;;;;;;2.85;1.35;;;2.10;99.90;;;;;;5031798;28;20068;-73
2022/01/29 03:53:33;;;;;;;1.92;1.75;;;2.00;99.90;;;;;;5013912;28;20022;-74
2022/01/29 03:55:59;;;;;;;2.20;2.00;;;1.70;99.90;;;;;;5013986;28;20104;-74
2022/01/29 03:58:25;;;;;;;0.80;0.80;;;1.50;99.90;;;;;;5013990;28;20074;-74
2022/01/29 04:00:51;;;;;;;2.90;0.93;;;1.40;99.90;;;;;;5031775;28;20061;-74
2022/01/29 04:03:16;;;;;;;4.03;1.55;;;1.30;99.90;;;;;;5031697;28;20033;-74
2022/01/29 04:05:42;;;;;;;0.95;0.93;;;1.30;99.90;;;;;;5031627;28;20076;-74
2022/01/29 04:08:15;;;;;;;0.40;0.40;;;1.30;99.90;;;;;;5031483;28;20035;-74
2022/01/29 04:10:41;;;;;;;3.10;1.65;;;1.30;99.90;;;;;;5031658;28;20021;-74
2022/01/29 04:13:10;;;;;;;0.52;0.52;;;1.30;99.90;;;;;;5013964;28;20021;-74
2022/01/29 04:15:36;;;;;;;1.20;1.05;;;1.20;99.90;;;;;;5031533;28;20071;-74
2022/01/29 04:18:01;;;;;;;0.32;0.32;;;1.20;99.90;;;;;;5031594;28;20480;-74
2022/01/29 04:20:27;;;;;;;0.32;0.32;;;1.20;99.90;;;;;;5031561;28;20025;-74
2022/01/29 04:22:53;;;;;;;0.35;0.35;;;1.30;99.90;;;;;;5013578;28;20116;-74
2022/01/29 04:25:19;;;;;;;1.23;0.75;;;1.30;99.90;;;;;;5014211;28;20034;-74
2022/01/29 04:27:47;;;;;;;0.40;0.40;;;1.40;99.90;;;;;;5013661;28;20036;-74
2022/01/29 04:30:29;;;;;;;0.70;0.63;;;1.40;99.90;;;;;;5031346;28;20152;-74
2022/01/29 04:35:25;;;;;;;9.93;1.65;;;1.40;99.90;;;;;;5032856;28;19940;-74
2022/01/29 04:37:51;;;;;;;3.65;1.50;;;1.30;99.90;;;;;;5035126;28;20021;-74
2022/01/29 04:40:18;;;;;;;0.43;0.43;;;1.30;99.90;;;;;;5017373;28;20389;-74
2022/01/29 04:42:43;;;;;;;0.90;0.50;;;1.20;99.90;;;;;;5000860;28;20553;-74
2022/01/29 04:45:09;;;;;;;0.95;0.82;;;1.40;99.90;;;;;;5035003;28;20029;-74
2022/01/29 04:47:35;;;;;;;2.40;1.55;;;1.40;99.90;;;;;;5034761;28;20132;-74
2022/01/29 04:50:01;;;;;;;1.77;1.02;;;1.30;99.90;;;;;;5017241;28;20037;-74
2022/01/29 04:52:26;;;;;;;1.98;0.93;;;1.30;99.90;;;;;;5034847;28;20435;-74
2022/01/29 04:54:52;;;;;;;1.42;0.90;;;1.30;99.90;;;;;;5034701;28;20018;-74
2022/01/29 04:57:18;;;;;;;1.08;1.08;;;1.30;99.90;;;;;;5034657;28;20017;-74
2022/01/29 04:59:44;;;;;;;0.50;0.50;;;1.30;99.90;;;;;;5034791;28;20060;-74
2022/01/29 05:02:10;;;;;;;2.75;0.68;;;1.40;99.90;;;;;;5034796;28;20056;-74
2022/01/29 05:04:35;;;;;;;5.97;1.75;;;1.40;99.90;;;;;;5034756;28;20025;-74
2022/01/29 05:07:01;;;;;;;0.40;0.40;;;1.40;99.90;;;;;;5034581;28;20026;-74
2022/01/29 05:09:27;;;;;;;0.40;0.40;;;1.40;99.90;;;;;;5034634;28;20076;-74
2022/01/29 05:11:54;;;;;;;0.40;0.40;;;1.30;99.90;;;;;;5034507;28;20025;-74
2022/01/29 05:14:34;;;;;;;1.45;1.00;;;1.40;99.90;;;;;;5034397;28;20120;-74
2022/01/29 05:27:57;;;;;;;0.68;0.68;;;1.60;99.90;;;;;;5034395;28;20033;-74
2022/01/29 05:30:23;;;;;;;0.40;0.40;;;1.60;99.90;;;;;;5034159;28;20087;-74
2022/01/29 05:32:49;;;;;;;0.30;0.30;;;1.70;99.90;;;;;;5016509;28;20025;-74
2022/01/29 05:35:15;;;;;;;0.40;0.40;;;1.70;99.90;;;;;;5034051;28;20032;-74
2022/01/29 05:37:40;;;;;;;0.30;0.30;;;1.70;99.90;;;;;;5034206;28;20256;-74
2022/01/29 05:40:07;;;;;;;7.68;4.97;;;1.70;99.90;;;;;;5034207;28;20017;-74
2022/01/29 05:42:33;;;;;;;0.50;0.50;;;1.70;99.90;;;;;;5033955;28;20021;-74
2022/01/29 05:44:58;;;;;;;0.38;0.38;;;1.70;99.90;;;;;;5016205;28;20032;-74
2022/01/29 05:47:24;;;;;;;0.20;0.20;;;1.80;99.90;;;;;;5033677;28;20504;-74
2022/01/29 05:49:50;;;;;;;0.40;0.40;;;2.00;99.90;;;;;;5016009;28;20509;-74
2022/01/29 05:52:16;;;;;;;0.35;0.35;;;2.00;99.90;;;;;;4999529;28;20080;-74
2022/01/29 05:54:41;;;;;;;0.30;0.30;;;2.10;99.90;;;;;;5015725;28;20064;-74
2022/01/29 05:57:09;;;;;;;0.30;0.30;;;2.20;99.90;;;;;;5015773;28;20469;-74
2022/01/29 05:59:36;;;;;;;0.30;0.30;;;2.20;99.90;;;;;;5015915;28;20488;-74
2022/01/29 06:02:02;;;;;;;0.30;0.30;;;2.10;99.90;;;;;;5033503;28;20401;-74
2022/01/29 06:04:28;;;;;;;0.40;0.40;;;2.00;99.90;;;;;;5015950;28;20112;-74
2022/01/29 06:06:54;;;;;;;0.38;0.38;;;2.10;99.90;;;;;;5033612;28;20491;-74
2022/01/29 06:09:19;;;;;;;0.30;0.30;;;2.10;99.90;;;;;;5033327;28;20436;-74
2022/01/29 06:11:45;;;;;;;0.40;0.40;;;2.00;99.90;;;;;;5033773;28;20056;-74
2022/01/29 06:14:12;;;;;;;0.40;0.40;;;2.10;99.90;;;;;;5015654;28;20045;-74
2022/01/29 06:16:38;;;;;;;0.40;0.40;;;2.30;99.90;;;;;;5033169;28;20104;-74
2022/01/29 06:19:03;;;;;;;0.30;0.30;;;2.40;99.90;;;;;;5015666;28;20109;-74
2022/01/29 06:21:29;;;;;;;0.32;0.32;;;2.60;99.90;;;;;;5033312;28;20036;-74
2022/01/29 06:23:55;;;;;;;0.30;0.30;;;2.70;99.90;;;;;;5033209;28;20083;-74
2022/01/29 06:26:21;;;;;;;0.30;0.30;;;2.70;99.90;;;;;;5033088;28;20358;-74
2022/01/29 06:31:34;;;;;;;0.30;0.30;;;2.60;99.90;;;;;;5087119;22;20041;-95
2022/01/29 06:34:10;;;;;;;0.30;0.30;;;2.50;99.90;;;;;;5042354;28;20056;-94
2022/01/29 06:36:39;;;;;;;0.30;0.30;;;2.60;99.90;;;;;;5042774;28;20040;-94
2022/01/29 06:39:28;;;;;;;0.70;0.70;;;2.40;99.90;;;;;;5042831;28;20032;-93
2022/01/29 06:42:03;;;;;;;0.38;0.38;;;2.30;99.90;;;;;;5042750;28;20051;-94
2022/01/29 06:44:35;;;;;;;0.25;0.25;;;2.30;99.90;;;;;;5041404;28;20132;-91
2022/01/29 06:47:01;;;;;;;0.30;0.30;;;2.30;99.90;;;;;;5041776;28;20017;-91
2022/01/29 06:49:32;;;;;;;0.40;0.40;;;2.40;99.90;;;;;;5039949;28;20105;-92
2022/01/29 06:52:01;;;;;;;0.30;0.30;;;2.40;99.90;;;;;;5037408;28;20427;-91
2022/01/29 06:54:52;;;;;;;0.50;0.50;;;2.40;99.90;;;;;;5039184;28;20017;-92
2022/01/29 06:57:18;;;;;;;1.23;1.02;;;2.40;98.90;;;;;;5036733;28;20052;-91
2022/01/29 06:59:47;;;;;;;0.40;0.40;;;2.40;97.40;;;;;;5037384;28;20089;-91
2022/01/29 07:02:20;;;;;;;0.63;0.63;;;2.50;96.60;;;;;;5038150;28;20021;-91
2022/01/29 07:05:02;;;;;;;1.27;1.17;;;2.60;96.70;;;;;;5040410;28;20029;-92
2022/01/29 07:07:42;;;;;;;0.82;0.82;;;2.60;95.70;;;;;;5041690;28;20096;-92
2022/01/29 07:10:37;;;;;;;4.57;1.38;;;2.60;95.60;;;;;;5042491;28;20088;-92
2022/01/29 07:16:26;;;;;;;0.65;0.65;;;2.70;94.90;;;;;;5046260;28;20067;-93
2022/01/29 07:19:03;;;;;;;7.22;1.67;;;2.70;94.00;;;;;;5038926;28;20032;-92
2022/01/29 07:21:41;;;;;;;0.70;0.70;;;2.70;94.10;;;;;;5039874;28;20641;-92
2022/01/29 07:24:33;;;;;;;0.30;0.30;;;2.70;94.00;;;;;;5040281;28;20019;-92
2022/01/29 07:27:22;;;;;;;5.38;1.65;;;2.60;93.70;;;;;;5042646;28;20518;-92
2022/01/29 07:29:54;;;;;;;0.40;0.40;;;2.60;93.50;;;;;;5036733;28;20060;-92
2022/01/29 07:32:33;;;;;;;0.75;0.75;;;2.60;93.50;;;;;;5038803;28;20041;-92
2022/01/29 07:35:22;;;;;;;1.38;0.75;;;2.60;93.40;;;;;;5039849;28;20063;-91
2022/01/29 07:41:25;;;;;;;3.40;1.02;;;2.60;92.50;;;;;;5054441;28;20051;-92
2022/01/29 07:44:00;;;;;;;0.28;0.28;;;2.60;92.40;;;;;;5036894;28;20486;-92
2022/01/29 07:46:53;;;;;;;0.70;0.70;;;2.60;92.50;;;;;;5031454;28;20029;-93
2022/01/29 07:49:31;;;;;;;;;;;2.70;92.10;;;;;;5034637;28;20060;-93
2022/01/29 07:52:24;;;;;;;3.80;0.57;;;2.70;92.00;;;;;;5035139;28;19954;-93
2022/01/29 07:55:25;;;;;;;0.40;0.40;;;2.70;91.60;;;;;;5034466;28;20025;-93
2022/01/29 07:58:04;;;;;;;0.50;0.50;;;2.70;91.30;;;;;;5049699;28;20025;-94
2022/01/29 08:00:54;;;;;;;;;;;;;;;;;;;;;
2022/01/29 08:03:32;;;;;;;0.30;0.30;;;2.90;90.70;;;;;;5059655;28;20013;-92
2022/01/29 08:06:16;;;;;;;0.70;0.70;;;2.90;90.20;;;;;;5061460;28;20076;-92
2022/01/29 08:09:00;;;;;;;0.30;0.30;;;2.90;90.50;;;;;;5044033;28;20017;-91
2022/01/29 08:11:31;;;;;;;2.33;1.02;;;2.90;90.30;;;;;;5046299;28;20357;-90
2022/01/29 08:13:56;;;;;;;0.80;0.80;;;3.00;90.00;;;;;;5054664;22;20047;-75
2022/01/29 08:16:22;;;;;;;1.48;0.60;;;3.00;90.10;;;;;;5063895;28;20029;-76
2022/01/29 08:18:48;;;;;;;0.50;0.50;;;3.10;89.10;;;;;;5047940;28;20506;-75
2022/01/29 08:21:15;;;;;;;0.40;0.40;;;3.10;88.80;;;;;;5057584;28;20028;-76
2022/01/29 08:23:41;;;;;;;0.77;0.63;;;3.20;88.00;;;;;;5059749;28;20025;-75
2022/01/29 08:26:08;;;;;;;0.65;0.65;;;3.20;87.20;;;;;;5055774;28;20029;-76
2022/01/29 08:28:33;;;;;;;0.43;0.43;;;3.20;86.00;;;;;;5037250;28;20029;-75
2022/01/29 08:30:59;;;;;;;1.08;0.98;;;3.20;86.40;;;;;;5037997;28;20029;-78
2022/01/29 08:33:25;;;;;;;0.98;0.88;;;3.20;84.50;;;;;;5056413;28;20357;-75
2022/01/29 08:35:52;;;;;;;0.30;0.30;;;3.20;84.30;;;;;;5055381;28;20033;-76
2022/01/29 08:38:18;;;;;;;0.55;0.35;;;3.30;85.40;;;;;;5037385;28;20049;-76
2022/01/29 08:40:43;;;;;;;0.75;0.73;;;3.30;82.80;;;;;;5037271;28;20492;-76
2022/01/29 08:43:09;;;;;;;0.88;0.82;;;3.30;84.10;;;;;;5036915;28;20075;-76
2022/01/29 08:45:35;;;;;;;0.60;0.52;;;3.30;84.80;;;;;;5037011;28;20051;-76
2022/01/29 08:48:01;;;;;;;4.03;1.10;;;3.30;84.10;;;;;;5060262;28;20471;-74
2022/01/29 08:50:27;;;;;;;2.08;0.55;;;3.30;84.40;;;;;;5059134;28;20025;-76
2022/01/29 08:52:53;;;;;;;0.60;0.60;;;3.30;82.90;;;;;;5074693;28;20083;-76
2022/01/29 08:55:18;;;;;;;0.70;0.70;;;3.30;83.10;;;;;;5040201;28;20662;-77
2022/01/29 08:57:45;;;;;;;0.30;0.30;;;3.40;84.70;;;;;;5056432;28;20373;-76
2022/01/29 09:00:12;;;;;;;0.30;0.30;;;3.40;83.80;;;;;;5074553;28;20025;-76
2022/01/29 09:02:38;;;;;;;1.20;0.82;;;3.40;83.80;;;;;;5056705;28;20388;-76
2022/01/29 09:05:05;;;;;;;0.55;0.55;;;3.40;83.40;;;;;;5056924;28;20021;-76
2022/01/29 09:07:31;;;;;;;0.73;0.68;;;3.30;83.30;;;;;;5074412;28;20016;-76
2022/01/29 09:09:57;;;;;;;0.65;0.50;;;3.40;83.40;;;;;;5040042;28;20028;-76
2022/01/29 09:12:22;;;;;;;0.63;0.63;;;3.40;83.50;;;;;;5056600;28;20020;-76
2022/01/29 09:14:48;;;;;;;0.30;0.30;;;3.50;82.90;;;;;;5074569;28;20032;-77
2022/01/29 09:17:14;;;;;;;0.43;0.43;;;3.50;82.70;;;;;;5041044;28;20088;-77
2022/01/29 09:19:40;;;;;;;0.68;0.68;;;3.50;82.30;;;;;;5040017;28;20494;-76
2022/01/29 09:22:06;;;;;;;0.30;0.30;;;3.60;82.10;;;;;;5051329;28;20090;-76
2022/01/29 09:24:32;;;;;;;0.40;0.40;;;3.60;82.40;;;;;;5019971;28;20523;-76
2022/01/29 09:26:58;;;;;;;0.30;0.30;;;3.70;82.90;;;;;;5036463;28;20033;-76
2022/01/29 09:29:24;;;;;;;0.30;0.30;;;3.70;81.00;;;;;;5036134;28;20057;-76
2022/01/29 09:31:50;;;;;;;1.77;1.17;;;3.80;80.40;;;;;;5036321;28;20063;-76
2022/01/29 09:34:16;;;;;;;0.30;0.30;;;3.80;80.80;;;;;;5054259;28;20029;-76
2022/01/29 09:36:42;;;;;;;0.28;0.28;;;3.80;80.10;;;;;;5054579;28;20021;-76
2022/01/29 09:39:08;;;;;;;4.50;1.02;;;3.80;79.00;;;;;;5018604;28;20025;-76
2022/01/29 09:41:37;;;;;;;0.70;0.70;;;3.80;79.40;;;;;;5054229;28;20036;-76
2022/01/29 09:44:03;;;;;;;0.80;0.80;;;3.70;79.20;;;;;;5053682;28;20424;-76
2022/01/29 09:46:32;;;;;;;0.40;0.40;;;3.80;79.50;;;;;;5054132;28;20063;-76
2022/01/29 09:48:59;;;;;;;3.60;0.70;;;3.70;79.40;;;;;;5035850;28;20048;-76
2022/01/29 09:51:26;;;;;;;0.30;0.30;;;3.80;79.10;;;;;;5054095;28;20013;-76
2022/01/29 09:53:52;;;;;;;1.48;0.75;;;3.80;79.90;;;;;;5036528;28;20033;-76
2022/01/29 09:56:18;;;;;;;0.47;0.40;;;3.80;80.30;;;;;;5019715;28;20021;-76
2022/01/29 09:58:44;;;;;;;1.83;1.13;;;3.80;79.90;;;;;;5035824;28;20157;-76
2022/01/29 10:01:11;;;;;;;0.85;0.85;;;3.90;79.80;;;;;;5053656;28;20032;-75
2022/01/29 10:03:37;;;;;;;0.75;0.60;;;3.80;78.50;;;;;;5053609;28;20120;-75
2022/01/29 10:06:03;;;;;;;1.45;1.02;;;3.90;79.10;;;;;;5053491;28;20079;-76
2022/01/29 10:08:41;;;;;;;0.40;0.40;;;3.90;79.00;;;;;;5035525;28;20029;-76
2022/01/29 10:11:19;;;;;;;0.30;0.30;;;4.00;79.40;;;;;;5035677;28;20107;-77
2022/01/29 10:13:44;;;;;;;0.30;0.30;;;4.00;77.80;;;;;;5035337;28;20070;-77
2022/01/29 10:16:20;;;;;;;0.50;0.50;;;4.10;77.50;;;;;;5035307;28;20442;-76
2022/01/29 10:18:57;;;;;;;0.35;0.35;;;4.20;77.90;;;;;;5053197;28;20029;-76
2022/01/29 10:21:25;;;;;;;0.47;0.47;;;4.30;76.90;;;;;;5053198;28;20021;-76
2022/01/29 10:24:08;;;;;;;0.60;0.45;;;4.30;75.50;;;;;;5054355;28;20442;-76
2022/01/29 10:26:39;;;;;;;0.30;0.30;;;4.20;75.60;;;;;;5055453;28;20484;-76
2022/01/29 10:29:08;;;;;;;2.17;1.90;;;4.30;75.80;;;;;;5055209;28;20028;-76
2022/01/29 10:31:47;;;;;;;0.40;0.40;;;4.30;74.70;;;;;;5073342;28;20017;-76
2022/01/29 10:34:25;;;;;;;0.32;0.32;;;4.30;74.30;;;;;;5054191;28;20024;-76
2022/01/29 10:37:16;;;;;;;0.80;0.80;;;4.40;73.70;;;;;;5054876;28;20548;-76
2022/01/29 10:39:56;;;;;;;1.60;1.50;;;4.40;73.20;;;;;;5054643;28;20035;-76
2022/01/29 10:42:32;;;;;;;1.80;1.10;;;4.50;73.60;;;;;;5054867;28;20480;-76
2022/01/29 10:45:02;;;;;;;1.40;1.02;;;4.50;72.80;;;;;;5038186;28;20387;-76
2022/01/29 10:47:50;;;;;;;1.05;1.02;;;4.50;73.20;;;;;;5063935;28;20028;-76
2022/01/29 10:50:16;;;;;;;3.83;1.15;;;4.50;73.20;;;;;;5018425;28;20112;-76
2022/01/29 10:52:42;;;;;;;1.15;0.85;;;4.60;72.20;;;;;;5034888;28;20052;-76
2022/01/29 10:55:09;;;;;;;0.60;0.60;;;4.60;71.60;;;;;;5034721;28;20024;-75
2022/01/29 10:57:40;;;;;;;0.30;0.30;;;4.60;71.50;;;;;;5034547;28;20020;-76
2022/01/29 11:00:17;;;;;;;0.53;0.53;;;4.60;72.40;;;;;;5033152;28;20025;-76
2022/01/29 11:02:44;;;;;;;0.32;0.32;;;4.60;70.70;;;;;;5034420;28;20029;-76
2022/01/29 11:05:11;;;;;;;0.30;0.30;;;4.70;70.40;;;;;;5034522;28;20076;-75
2022/01/29 11:07:37;;;;;;;0.50;0.50;;;4.70;70.30;;;;;;5034283;28;20198;-76
2022/01/29 11:10:06;;;;;;;0.40;0.40;;;4.80;70.00;;;;;;5017979;28;20051;-76
2022/01/29 11:12:33;;;;;;;0.20;0.20;;;4.90;70.10;;;;;;5052206;28;20028;-77
2022/01/29 11:15:01;;;;;;;10.32;1.45;;;4.90;69.40;;;;;;5052139;28;20035;-76
2022/01/29 11:17:29;;;;;;;0.52;0.52;;;5.00;68.40;;;;;;5017993;28;20025;-76
2022/01/29 11:19:55;;;;;;;0.32;0.32;;;5.10;66.20;;;;;;5017789;28;20028;-76
2022/01/29 11:22:23;;;;;;;0.40;0.40;;;5.20;64.50;;;;;;5052429;28;20021;-76
2022/01/29 11:24:57;;;;;;;0.20;0.20;;;5.30;63.80;;;;;;5052016;28;20095;-76
2022/01/29 11:27:27;;;;;;;2.53;0.80;;;5.40;64.50;;;;;;5051805;28;20025;-76
2022/01/29 11:30:02;;;;;;;5.88;1.15;;;5.50;62.80;;;;;;5017906;28;20051;-77
2022/01/29 11:32:34;;;;;;;1.17;0.50;;;5.50;61.80;;;;;;5034045;28;20090;-76
2022/01/29 11:35:02;;;;;;;0.73;0.55;;;5.50;61.00;;;;;;5052040;28;20516;-77
2022/01/29 11:37:49;;;;;;;0.47;0.45;;;5.60;62.80;;;;;;5020404;28;20025;-77
2022/01/29 11:40:18;;;;;;;0.28;0.28;;;5.60;60.20;;;;;;5053746;28;20031;-77
2022/01/29 11:43:04;;;;;;;0.90;0.57;;;5.70;60.20;;;;;;5054450;28;20017;-77
2022/01/29 11:45:44;;;;;;;0.95;0.65;;;5.80;58.50;;;;;;5034857;28;20562;-76
2022/01/29 11:48:25;;;;;;;0.30;0.30;;;5.80;59.40;;;;;;5053310;28;20388;-77
2022/01/29 11:50:56;;;;;;;0.30;0.30;;;5.90;59.60;;;;;;5053383;28;20079;-76
2022/01/29 11:53:23;;;;;;;0.30;0.30;;;6.00;60.20;;;;;;5053957;28;20029;-77
2022/01/29 11:55:56;;;;;;;0.20;0.20;;;6.10;59.10;;;;;;5053798;28;20448;-77
2022/01/29 11:58:27;;;;;;;2.20;1.02;;;6.10;58.60;;;;;;5053443;28;20049;-77
2022/01/29 12:00:53;;;;;;;0.20;0.20;;;6.20;57.40;;;;;;5036805;28;20402;-76
2022/01/29 12:03:34;;;;;;;0.90;0.50;;;6.20;57.30;;;;;;5062298;28;20044;-76
2022/01/29 12:06:23;;;;;;;0.40;0.40;;;6.20;55.80;;;;;;5049764;28;20075;-77
2022/01/29 12:09:06;;;;;;;0.80;0.80;;;6.60;56.60;;;;;;5052536;28;20396;-77
2022/01/29 12:11:38;;;;;;;0.20;0.20;;;7.30;56.00;;;;;;5053439;28;20080;-77
2022/01/29 12:14:13;;;;;;;2.13;0.47;;;7.80;54.10;;;;;;5018643;28;20423;-77
2022/01/29 12:16:54;;;;;;;1.15;0.40;;;7.80;54.40;;;;;;5034934;28;20159;-77
2022/01/29 12:19:40;;;;;;;0.40;0.40;;;7.60;55.40;;;;;;5053843;28;20035;-76
2022/01/29 12:22:19;;;;;;;0.20;0.20;;;7.50;55.70;;;;;;5038210;28;20051;-77
2022/01/29 12:24:56;;;;;;;0.20;0.20;;;7.90;55.30;;;;;;5072897;28;20021;-77
2022/01/29 12:27:23;;;;;;;0.10;0.10;;;8.70;54.40;;;;;;5037283;28;20025;-77
2022/01/29 12:29:49;;;;;;;0.30;0.30;;;9.20;52.00;;;;;;5053571;28;20464;-77
2022/01/29 12:32:15;;;;;;;0.25;0.25;;;9.70;51.10;;;;;;5053227;28;20028;-77
2022/01/29 12:34:41;;;;;;;0.80;0.50;;;9.90;50.20;;;;;;5039831;28;20021;-76
2022/01/29 12:37:15;;;;;;;0.20;0.20;;;9.40;49.30;;;;;;5016534;28;20110;-76
2022/01/29 12:39:44;;;;;;;0.30;0.30;;;9.80;50.20;;;;;;5051378;28;20380;-76
2022/01/29 12:44:56;;;;;;;4.80;0.70;;;10.60;47.90;;;;;;5051076;28;20021;-77
2022/01/29 12:47:32;;;;;;;0.20;0.20;;;10.50;46.70;;;;;;5051236;28;20104;-76
2022/01/29 12:49:58;;;;;;;0.20;0.20;;;10.40;47.60;;;;;;5051119;28;20599;-76
2022/01/29 12:52:25;;;;;;;2.45;0.30;;;10.20;46.90;;;;;;5016920;28;20025;-76
2022/01/29 12:55:03;;;;;;;1.05;0.45;;;10.40;45.60;;;;;;5033478;28;20033;-76
2022/01/29 12:57:49;;;;;;;0.30;0.30;;;10.40;45.90;;;;;;5054348;28;20025;-76
2022/01/29 13:00:18;;;;;;;0.20;0.20;;;10.30;45.80;;;;;;5036994;28;20029;-76
2022/01/29 13:02:44;;;;;;;0.80;0.45;;;10.30;45.60;;;;;;5036774;28;20549;-77
2022/01/29 13:05:11;;;;;;;0.40;0.35;;;10.20;45.50;;;;;;5036742;28;20071;-76
2022/01/29 13:07:39;;;;;;;0.20;0.20;;;10.10;45.70;;;;;;5019755;28;20112;-76
2022/01/29 13:10:07;;;;;;;0.20;0.20;;;10.30;45.40;;;;;;5035450;28;20077;-77
2022/01/29 13:12:43;;;;;;;0.20;0.20;;;10.80;45.10;;;;;;5074485;28;20028;-76
2022/01/29 13:15:11;;;;;;;0.47;0.38;;;10.90;44.00;;;;;;5056316;28;20060;-76
2022/01/29 13:17:44;;;;;;;0.25;0.25;;;10.50;43.40;;;;;;5074752;28;20113;-76
2022/01/29 13:20:12;;;;;;;0.20;0.20;;;10.90;43.30;;;;;;5056292;28;20077;-76
2022/01/29 13:22:42;;;;;;;0.52;0.50;;;11.60;43.10;;;;;;5056278;28;20190;-77
2022/01/29 13:25:10;;;;;;;0.22;0.22;;;11.00;40.70;;;;;;5074285;28;20025;-76
2022/01/29 13:27:38;;;;;;;2.95;0.35;;;11.00;42.40;;;;;;5073391;28;20020;-76
2022/01/29 13:30:18;;;;;;;0.30;0.30;;;11.20;42.10;;;;;;5055755;28;20033;-76
2022/01/29 13:33:11;;;;;;;2.60;0.52;;;11.30;41.70;;;;;;5057005;28;20021;-76
2022/01/29 13:35:52;;;;;;;0.20;0.20;;;10.70;42.20;;;;;;5057680;28;20110;-77